Time;durP1;ratioP1;P1;durP2;ratioP2;P2;SDS_P1;SDS_P2;PMS_P1;PMS_P2;Temp;Humidity;BMP_temperature;BMP_pressure;BME280_temperature;BME280_humidity;BME280_pressure;Samples;Min_cycle;Max_cycle;Signal;HPM_P1;HPM_P2
2023/02/17 00:00:06;;;;;;;8.40;4.37;;;11.30;99.90;;;;;;5075853;28;20111;-68
2023/02/17 00:02:33;;;;;;;6.80;4.10;;;11.20;99.90;;;;;;5084467;28;20028;-67
2023/02/17 00:04:58;;;;;;;10.32;4.40;;;11.20;99.90;;;;;;5095577;28;20025;-68
2023/02/17 00:07:24;;;;;;;8.43;4.30;;;11.20;99.90;;;;;;5095348;28;20016;-68
2023/02/17 00:09:49;;;;;;;9.23;4.90;;;11.10;99.90;;;;;;5077234;28;20376;-68
2023/02/17 00:12:15;;;;;;;7.57;4.37;;;11.10;99.90;;;;;;5095158;28;20100;-68
2023/02/17 00:14:41;;;;;;;8.53;4.47;;;11.10;99.90;;;;;;5077885;28;20023;-68
2023/02/17 00:17:06;;;;;;;11.07;4.10;;;11.10;99.90;;;;;;5095418;28;20024;-67
2023/02/17 00:19:32;;;;;;;9.03;4.30;;;11.10;99.90;;;;;;5095851;28;20388;-68
2023/02/17 00:22:00;;;;;;;7.00;4.43;;;11.00;99.90;;;;;;5095618;28;20024;-67
2023/02/17 00:24:27;;;;;;;6.20;4.20;;;11.00;99.90;;;;;;5077171;28;20020;-68
2023/02/17 00:26:53;;;;;;;7.78;4.32;;;11.00;99.90;;;;;;5095687;28;20039;-67
2023/02/17 00:29:19;;;;;;;7.53;4.20;;;11.00;99.90;;;;;;5087634;28;20029;-68
2023/02/17 00:31:44;;;;;;;9.83;4.53;;;11.10;99.90;;;;;;5074634;28;20029;-69
2023/02/17 00:34:10;;;;;;;6.85;4.20;;;10.90;99.90;;;;;;5074863;28;20032;-68
2023/02/17 00:36:36;;;;;;;8.20;3.90;;;10.80;99.90;;;;;;5074913;28;20029;-68
2023/02/17 00:39:02;;;;;;;10.40;4.97;;;10.80;99.90;;;;;;5063190;28;20366;-68
2023/02/17 00:41:28;;;;;;;8.95;3.88;;;10.80;99.90;;;;;;5083598;28;20032;-67
2023/02/17 00:43:54;;;;;;;7.22;4.18;;;10.70;99.90;;;;;;5095077;28;20526;-67
2023/02/17 00:46:20;;;;;;;8.50;4.18;;;10.60;99.90;;;;;;5094583;28;20115;-67
2023/02/17 00:48:47;;;;;;;7.72;4.35;;;10.60;99.90;;;;;;5076491;28;20024;-68
2023/02/17 00:51:13;;;;;;;7.13;3.67;;;10.70;99.90;;;;;;5093911;28;20103;-67
2023/02/17 00:53:40;;;;;;;7.45;4.00;;;10.60;99.90;;;;;;5076305;28;20523;-68
2023/02/17 00:56:05;;;;;;;;;;;10.70;99.90;;;;;;5095185;28;20027;-68
2023/02/17 00:58:31;;;;;;;11.20;4.35;;;10.80;99.90;;;;;;5094105;28;19966;-68
2023/02/17 01:00:57;;;;;;;6.93;3.77;;;10.70;99.90;;;;;;5094441;28;20032;-68
2023/02/17 01:03:23;;;;;;;;;;;10.90;99.90;;;;;;5094780;28;20032;-67
2023/02/17 01:05:49;;;;;;;11.68;3.95;;;11.00;99.90;;;;;;5076262;28;19908;-67
2023/02/17 01:08:16;;;;;;;7.95;4.18;;;11.10;99.90;;;;;;5094744;28;20024;-67
2023/02/17 01:10:43;;;;;;;9.55;4.78;;;11.10;99.90;;;;;;5094672;28;20400;-68
2023/02/17 01:13:10;;;;;;;9.32;4.28;;;11.10;99.90;;;;;;5094266;28;20031;-67
2023/02/17 01:15:40;;;;;;;;;;;11.20;99.90;;;;;;5076817;28;20077;-68
2023/02/17 01:18:05;;;;;;;6.50;3.80;;;11.20;99.90;;;;;;5076480;28;19904;-68
2023/02/17 01:20:34;;;;;;;6.47;4.13;;;11.20;99.90;;;;;;5094131;28;20036;-67
2023/02/17 01:23:00;;;;;;;8.90;4.05;;;11.30;99.90;;;;;;5094100;28;20031;-67
2023/02/17 01:25:25;;;;;;;7.63;4.18;;;11.20;99.90;;;;;;5076293;28;20024;-67
2023/02/17 01:27:51;;;;;;;7.03;4.17;;;11.20;99.90;;;;;;5093763;28;20553;-67
2023/02/17 01:30:17;;;;;;;8.53;4.27;;;11.20;99.90;;;;;;5094019;28;20024;-67
2023/02/17 01:32:42;;;;;;;6.78;4.30;;;11.20;99.90;;;;;;5094109;28;20380;-66
2023/02/17 01:35:08;;;;;;;7.77;4.27;;;11.20;99.90;;;;;;5075534;28;20032;-68
2023/02/17 01:37:34;;;;;;;8.57;4.67;;;11.20;99.90;;;;;;5075784;28;20110;-68
2023/02/17 01:39:59;;;;;;;11.73;5.75;;;11.20;99.90;;;;;;5093712;28;20035;-67
2023/02/17 01:42:25;;;;;;;7.93;4.40;;;11.20;99.90;;;;;;5093427;28;20067;-67
2023/02/17 01:45:18;;;;;;;8.35;4.30;;;11.10;99.90;;;;;;5093638;28;20389;-68
2023/02/17 01:47:57;;;;;;;7.35;4.10;;;11.10;99.90;;;;;;5093608;28;20035;-68
2023/02/17 01:50:29;;;;;;;8.60;4.82;;;11.00;99.90;;;;;;5093598;28;20035;-68
2023/02/17 01:52:56;;;;;;;7.32;4.03;;;10.90;99.90;;;;;;5093968;28;20480;-67
2023/02/17 01:55:24;;;;;;;9.43;4.65;;;10.90;99.90;;;;;;5094323;28;20470;-67
2023/02/17 01:57:52;;;;;;;8.43;4.65;;;10.90;99.90;;;;;;5094364;28;20024;-68
2023/02/17 02:00:20;;;;;;;11.38;4.70;;;10.80;99.90;;;;;;5096936;28;20035;-67
2023/02/17 02:02:48;;;;;;;8.38;5.00;;;10.80;99.90;;;;;;5093964;28;20028;-67
2023/02/17 02:05:16;;;;;;;8.85;4.30;;;10.80;99.90;;;;;;5075809;28;20028;-67
2023/02/17 02:07:44;;;;;;;8.68;4.78;;;10.80;99.90;;;;;;5075383;28;20024;-67
2023/02/17 02:10:14;;;;;;;7.43;4.30;;;10.90;99.90;;;;;;5100518;22;20388;-67
2023/02/17 02:12:41;;;;;;;8.23;4.38;;;10.90;99.90;;;;;;5080438;28;20127;-69
2023/02/17 02:15:11;;;;;;;9.00;5.13;;;10.90;99.90;;;;;;5093166;28;20036;-68
2023/02/17 02:17:55;;;;;;;8.13;4.47;;;11.00;99.90;;;;;;5097593;28;20111;-68
2023/02/17 02:20:58;;;;;;;8.95;4.72;;;11.10;99.90;;;;;;5092230;28;20069;-67
2023/02/17 02:23:48;;;;;;;9.45;4.10;;;11.10;99.90;;;;;;5075838;28;20499;-68
2023/02/17 02:26:32;;;;;;;10.82;5.05;;;11.10;99.90;;;;;;5093715;28;20024;-67
2023/02/17 02:29:21;;;;;;;8.77;4.50;;;11.20;99.90;;;;;;5097366;28;20020;-68
2023/02/17 02:32:14;;;;;;;8.15;3.97;;;11.20;99.90;;;;;;5094261;28;20024;-68
2023/02/17 02:35:15;;;;;;;11.55;4.50;;;11.10;99.90;;;;;;5094538;28;20028;-69
2023/02/17 02:37:55;;;;;;;7.40;4.00;;;11.20;99.90;;;;;;5045733;28;20032;-68
2023/02/17 02:40:25;;;;;;;7.82;4.20;;;11.20;99.90;;;;;;5075341;28;20024;-68
2023/02/17 02:42:53;;;;;;;8.18;4.35;;;11.20;99.90;;;;;;5113565;28;20498;-68
2023/02/17 02:45:18;;;;;;;6.90;3.65;;;11.30;99.90;;;;;;5114056;28;20364;-68
2023/02/17 02:47:50;;;;;;;7.63;3.70;;;11.30;99.90;;;;;;5095368;28;20023;-68
2023/02/17 02:50:22;;;;;;;7.80;3.90;;;11.30;99.90;;;;;;5113618;28;20024;-68
2023/02/17 02:53:05;;;;;;;6.63;3.38;;;11.30;99.90;;;;;;5095209;28;20095;-68
2023/02/17 02:55:59;;;;;;;7.03;3.40;;;11.30;99.90;;;;;;5113856;28;20016;-68
2023/02/17 02:58:51;;;;;;;8.70;3.58;;;11.30;99.90;;;;;;5113165;28;20036;-69
2023/02/17 03:01:44;;;;;;;8.82;3.58;;;11.30;99.90;;;;;;5113215;28;20065;-68
2023/02/17 03:04:35;;;;;;;7.57;3.63;;;11.20;99.90;;;;;;5113174;28;20058;-68
2023/02/17 03:07:20;;;;;;;8.45;3.63;;;11.20;99.90;;;;;;5094942;28;20059;-68
2023/02/17 03:09:54;;;;;;;8.07;3.58;;;11.30;99.90;;;;;;5108154;28;20369;-68
2023/02/17 03:12:22;;;;;;;7.53;3.83;;;11.20;99.90;;;;;;5103516;28;20107;-68
2023/02/17 03:14:51;;;;;;;6.00;3.80;;;11.30;99.90;;;;;;5116345;28;20429;-68
2023/02/17 03:17:17;;;;;;;8.50;3.50;;;11.20;99.90;;;;;;5098975;28;20023;-68
2023/02/17 03:19:45;;;;;;;7.17;3.30;;;11.20;99.90;;;;;;5098890;28;20031;-68
2023/02/17 03:22:15;;;;;;;5.10;3.40;;;11.20;99.90;;;;;;5116518;28;20617;-68
2023/02/17 03:24:40;;;;;;;6.60;3.20;;;11.10;99.90;;;;;;5116476;28;20032;-69
2023/02/17 03:27:06;;;;;;;5.10;3.43;;;11.20;99.90;;;;;;5116937;28;20382;-68
2023/02/17 03:29:32;;;;;;;7.27;3.37;;;11.20;99.90;;;;;;5116457;28;20026;-68
2023/02/17 03:31:58;;;;;;;6.43;3.40;;;11.10;99.90;;;;;;5116454;28;20027;-68
2023/02/17 03:34:23;;;;;;;5.67;3.13;;;11.20;99.90;;;;;;5098223;28;20062;-68
2023/02/17 03:36:49;;;;;;;6.30;3.30;;;11.10;99.90;;;;;;5116290;28;20024;-68
2023/02/17 03:39:15;;;;;;;7.37;3.07;;;11.10;99.90;;;;;;5116271;28;20024;-67
2023/02/17 03:41:41;;;;;;;6.47;2.47;;;11.10;99.90;;;;;;5115649;28;20024;-67
2023/02/17 03:44:06;;;;;;;3.90;2.37;;;11.10;99.90;;;;;;5097868;28;20034;-68
2023/02/17 03:46:32;;;;;;;4.97;2.30;;;11.10;99.90;;;;;;5117440;28;20498;-68
2023/02/17 03:48:57;;;;;;;6.07;2.43;;;11.10;99.90;;;;;;5116603;28;20085;-67
2023/02/17 03:51:24;;;;;;;6.33;2.50;;;11.20;99.90;;;;;;5116214;28;20102;-68
2023/02/17 03:53:50;;;;;;;6.13;2.28;;;11.10;99.90;;;;;;5098160;28;20440;-69
2023/02/17 03:56:16;;;;;;;4.22;2.05;;;11.10;99.90;;;;;;5117636;28;20027;-68
2023/02/17 03:58:42;;;;;;;5.78;2.97;;;11.10;99.90;;;;;;5100411;28;20024;-68
2023/02/17 04:01:09;;;;;;;5.35;2.67;;;11.10;99.90;;;;;;5080227;28;20430;-68
2023/02/17 04:03:35;;;;;;;4.13;2.42;;;11.10;99.90;;;;;;5096345;28;20059;-68
2023/02/17 04:06:01;;;;;;;6.93;2.03;;;11.20;99.90;;;;;;5114834;28;20436;-68
2023/02/17 04:08:27;;;;;;;3.95;2.10;;;11.20;99.90;;;;;;5115723;28;20032;-68
2023/02/17 04:10:55;;;;;;;3.30;2.17;;;11.10;99.90;;;;;;5115884;28;20023;-68
2023/02/17 04:13:21;;;;;;;4.55;2.00;;;11.10;99.90;;;;;;5115582;28;20015;-68
2023/02/17 04:15:48;;;;;;;3.70;2.08;;;11.10;99.90;;;;;;5115710;28;20471;-68
2023/02/17 04:18:14;;;;;;;4.63;1.98;;;11.10;99.90;;;;;;5094010;28;20560;-68
2023/02/17 04:20:40;;;;;;;5.40;2.05;;;11.10;99.90;;;;;;5094926;28;20028;-67
2023/02/17 04:23:05;;;;;;;3.35;2.08;;;11.20;99.90;;;;;;5094813;28;20476;-68
2023/02/17 04:25:34;;;;;;;4.70;2.43;;;11.10;99.90;;;;;;5094060;28;20024;-68
2023/02/17 04:28:00;;;;;;;6.60;2.33;;;11.00;99.90;;;;;;5078354;28;20020;-68
2023/02/17 04:30:26;;;;;;;5.38;2.33;;;10.90;99.90;;;;;;5095261;28;20386;-68
2023/02/17 04:32:51;;;;;;;4.00;2.50;;;10.90;99.90;;;;;;5094823;28;20020;-67
2023/02/17 04:35:17;;;;;;;5.20;2.83;;;10.90;99.90;;;;;;5094911;28;20115;-68
2023/02/17 04:37:42;;;;;;;4.73;3.23;;;10.80;99.90;;;;;;5101635;28;20353;-67
2023/02/17 04:40:09;;;;;;;4.43;3.33;;;10.80;99.90;;;;;;5115011;28;20028;-68
2023/02/17 04:42:35;;;;;;;;;;;10.80;99.90;;;;;;5115373;28;20472;-68
2023/02/17 04:45:00;;;;;;;6.38;3.35;;;10.80;99.90;;;;;;5097094;28;19915;-68
2023/02/17 04:47:26;;;;;;;9.20;4.60;;;10.70;99.90;;;;;;5115285;28;20039;-68
2023/02/17 04:49:51;;;;;;;6.73;3.77;;;10.70;99.90;;;;;;5096777;28;20023;-67
2023/02/17 04:52:17;;;;;;;8.87;4.10;;;10.70;99.90;;;;;;5096584;28;20024;-68
2023/02/17 04:54:42;;;;;;;6.43;3.47;;;10.70;99.90;;;;;;5115084;28;20104;-68
2023/02/17 04:57:08;;;;;;;7.13;3.63;;;10.70;99.90;;;;;;5114632;28;20020;-67
2023/02/17 04:59:33;;;;;;;5.47;3.63;;;10.70;99.90;;;;;;5115069;28;20100;-67
2023/02/17 05:01:59;;;;;;;7.23;3.73;;;10.80;99.90;;;;;;5114763;28;20028;-67
2023/02/17 05:04:24;;;;;;;8.37;4.30;;;10.80;99.90;;;;;;5114807;28;20019;-68
2023/02/17 05:06:50;;;;;;;7.37;3.57;;;10.80;99.90;;;;;;5114286;28;20114;-67
2023/02/17 05:09:15;;;;;;;5.50;3.30;;;10.80;99.90;;;;;;5114234;28;20099;-67
2023/02/17 05:11:41;;;;;;;10.63;3.87;;;10.70;99.90;;;;;;5113872;28;20043;-67
2023/02/17 05:14:07;;;;;;;10.47;3.97;;;10.60;99.90;;;;;;5096356;28;20030;-68
2023/02/17 05:16:32;;;;;;;7.00;3.53;;;10.60;99.90;;;;;;5114572;28;20051;-68
2023/02/17 05:18:58;;;;;;;7.90;3.73;;;10.60;99.90;;;;;;5108048;28;20055;-66
2023/02/17 05:21:23;;;;;;;5.97;3.37;;;10.60;99.90;;;;;;5112811;28;20384;-67
2023/02/17 05:23:49;;;;;;;7.60;4.03;;;10.60;99.90;;;;;;5114368;28;20024;-68
2023/02/17 05:26:14;;;;;;;5.60;3.07;;;10.60;99.90;;;;;;5114288;28;20020;-67
2023/02/17 05:28:40;;;;;;;6.50;3.03;;;10.60;99.90;;;;;;5114359;28;20015;-67
2023/02/17 05:31:05;;;;;;;5.33;3.43;;;10.70;99.90;;;;;;5121217;28;20095;-67
2023/02/17 05:33:31;;;;;;;8.83;2.87;;;10.70;99.90;;;;;;5115752;28;20098;-67
2023/02/17 05:36:04;;;;;;;5.25;2.78;;;10.70;99.90;;;;;;5099410;28;20491;-70
2023/02/17 05:38:29;;;;;;;6.20;2.38;;;10.70;99.90;;;;;;5096932;28;20027;-68
2023/02/17 05:40:55;;;;;;;6.60;2.53;;;10.70;99.90;;;;;;5096392;28;20034;-67
2023/02/17 05:43:21;;;;;;;4.63;2.50;;;10.70;99.90;;;;;;5095769;28;20032;-68
2023/02/17 05:45:46;;;;;;;3.83;2.30;;;10.80;99.90;;;;;;5114571;28;20369;-70
2023/02/17 05:48:12;;;;;;;8.53;2.37;;;10.80;99.90;;;;;;5114849;28;20020;-68
2023/02/17 05:50:37;;;;;;;4.20;2.10;;;10.80;99.90;;;;;;5095519;28;20019;-68
2023/02/17 05:53:03;;;;;;;4.67;1.87;;;10.80;99.90;;;;;;5113297;28;20031;-68
2023/02/17 05:55:29;;;;;;;4.47;2.00;;;10.90;99.90;;;;;;5118561;28;20031;-69
2023/02/17 05:57:54;;;;;;;4.03;2.20;;;10.80;99.90;;;;;;5120558;28;20356;-69
2023/02/17 06:00:20;;;;;;;4.77;2.10;;;10.70;99.90;;;;;;5097430;28;20028;-68
2023/02/17 06:02:45;;;;;;;7.60;2.20;;;10.70;99.90;;;;;;5095823;28;20077;-69
2023/02/17 06:05:11;;;;;;;6.30;2.50;;;10.80;99.90;;;;;;5114302;28;20791;-69
2023/02/17 06:07:37;;;;;;;3.57;2.07;;;10.80;99.90;;;;;;5095324;28;20080;-68
2023/02/17 06:10:03;;;;;;;4.97;2.40;;;10.80;99.90;;;;;;5114675;28;20034;-69
2023/02/17 06:12:28;;;;;;;4.78;2.10;;;10.80;99.90;;;;;;5110740;28;20284;-69
2023/02/17 06:14:54;;;;;;;3.00;1.90;;;10.90;99.90;;;;;;5092966;28;20024;-70
2023/02/17 06:17:19;;;;;;;3.47;1.90;;;10.90;99.90;;;;;;5095696;28;20075;-70
2023/02/17 06:19:45;;;;;;;5.43;2.17;;;10.90;99.90;;;;;;5114461;28;20148;-68
2023/02/17 06:22:11;;;;;;;5.90;1.87;;;10.90;99.90;;;;;;5115324;28;20011;-72
2023/02/17 06:24:36;;;;;;;2.73;1.93;;;10.90;99.90;;;;;;5114156;28;20183;-71
2023/02/17 06:27:02;;;;;;;5.97;2.33;;;11.00;99.90;;;;;;5113746;28;20027;-69
2023/02/17 06:29:27;;;;;;;6.60;2.83;;;10.90;99.90;;;;;;5112894;28;20035;-69
2023/02/17 06:31:53;;;;;;;4.80;2.30;;;11.00;99.90;;;;;;5113235;28;20100;-68
2023/02/17 06:34:19;;;;;;;4.75;2.40;;;11.00;99.90;;;;;;5092098;28;20047;-70
2023/02/17 06:36:44;;;;;;;3.17;2.00;;;11.00;99.90;;;;;;5096331;28;20071;-69
2023/02/17 06:39:10;;;;;;;6.85;2.45;;;11.00;99.90;;;;;;5112480;28;20028;-69
2023/02/17 06:41:36;;;;;;;4.10;2.17;;;11.00;99.90;;;;;;5109813;28;20027;-70
2023/02/17 06:44:01;;;;;;;4.10;2.20;;;11.00;99.90;;;;;;5106982;28;20099;-70
2023/02/17 06:46:27;;;;;;;3.83;2.03;;;11.10;99.90;;;;;;5113612;28;20031;-70
2023/02/17 06:48:54;;;;;;;3.57;2.20;;;11.10;99.90;;;;;;5099328;28;20024;-69
2023/02/17 06:51:19;;;;;;;;;;;11.20;99.90;;;;;;5117873;28;20346;-69
2023/02/17 06:53:45;;;;;;;8.07;2.47;;;11.10;99.90;;;;;;5100926;28;19907;-69
2023/02/17 06:56:10;;;;;;;5.23;2.67;;;11.10;99.90;;;;;;5103887;28;20468;-70
2023/02/17 06:58:36;;;;;;;5.43;2.47;;;11.20;99.90;;;;;;5108089;28;20425;-69
2023/02/17 07:01:02;;;;;;;6.10;2.45;;;11.20;99.90;;;;;;5107694;28;20038;-69
2023/02/17 07:03:30;;;;;;;4.38;2.30;;;11.20;99.90;;;;;;5112802;28;20427;-70
2023/02/17 07:05:58;;;;;;;4.95;2.65;;;11.10;99.90;;;;;;5117089;28;20019;-70
2023/02/17 07:08:23;;;;;;;6.25;3.15;;;11.20;99.90;;;;;;5095571;28;20072;-70
2023/02/17 07:10:49;;;;;;;4.57;2.63;;;11.20;99.90;;;;;;5084993;28;20028;-71
2023/02/17 07:13:15;;;;;;;4.87;2.70;;;11.20;99.90;;;;;;5086737;28;20020;-70
2023/02/17 07:15:40;;;;;;;4.90;2.83;;;11.20;99.90;;;;;;5114297;28;20433;-68
2023/02/17 07:18:06;;;;;;;7.20;2.83;;;11.30;99.90;;;;;;5098664;28;20030;-69
2023/02/17 07:20:31;;;;;;;5.47;2.78;;;11.30;99.90;;;;;;5108141;28;20414;-68
2023/02/17 07:22:58;;;;;;;4.73;2.50;;;11.20;99.90;;;;;;5088411;28;20050;-67
2023/02/17 07:25:24;;;;;;;6.30;2.60;;;11.30;99.90;;;;;;5117536;28;20277;-68
2023/02/17 07:27:50;;;;;;;6.53;2.88;;;11.30;99.90;;;;;;5116595;28;20494;-68
2023/02/17 07:30:16;;;;;;;6.93;2.50;;;11.40;99.90;;;;;;5116280;28;20027;-68
2023/02/17 07:32:42;;;;;;;5.85;2.75;;;11.40;99.90;;;;;;5116498;28;20264;-68
2023/02/17 07:35:07;;;;;;;4.33;2.87;;;11.40;99.90;;;;;;5117996;28;20035;-68
2023/02/17 07:37:33;;;;;;;4.33;2.63;;;11.50;99.90;;;;;;5099496;28;20035;-69
2023/02/17 07:39:58;;;;;;;5.20;2.30;;;11.50;99.90;;;;;;5118034;28;20104;-69
2023/02/17 07:42:26;;;;;;;6.23;2.60;;;11.50;99.90;;;;;;5111392;28;20036;-69
2023/02/17 07:44:52;;;;;;;5.13;2.63;;;11.60;99.90;;;;;;5098506;28;20031;-68
2023/02/17 07:47:17;;;;;;;4.07;2.70;;;11.50;99.90;;;;;;5116472;28;20084;-69
2023/02/17 07:49:43;;;;;;;4.47;2.70;;;11.50;99.90;;;;;;5091515;28;20026;-68
2023/02/17 07:52:08;;;;;;;10.30;2.33;;;11.60;99.90;;;;;;5097197;28;20023;-68
2023/02/17 07:54:34;;;;;;;5.87;2.93;;;11.50;99.90;;;;;;5117775;28;20024;-68
2023/02/17 07:56:59;;;;;;;5.77;2.67;;;11.40;99.90;;;;;;5116952;28;20024;-67
2023/02/17 07:59:25;;;;;;;7.47;3.13;;;11.50;99.90;;;;;;5116339;28;20028;-67
2023/02/17 08:01:51;;;;;;;6.78;3.40;;;11.50;99.90;;;;;;5116134;28;20110;-67
2023/02/17 08:04:16;;;;;;;11.03;3.30;;;11.50;99.90;;;;;;5098775;28;20163;-67
2023/02/17 08:06:42;;;;;;;10.27;3.50;;;11.50;99.90;;;;;;5116442;28;20028;-68
2023/02/17 08:14:38;;;;;;;6.18;3.55;;;11.40;99.90;;;;;;5113264;28;20030;-66
2023/02/17 08:17:05;;;;;;;7.33;4.07;;;11.40;99.90;;;;;;5115339;28;20099;-65
2023/02/17 08:19:31;;;;;;;7.07;3.80;;;11.30;99.90;;;;;;5115567;28;20042;-65
2023/02/17 08:21:56;;;;;;;7.87;4.13;;;11.30;99.90;;;;;;5128293;27;20475;-65
2023/02/17 08:24:23;;;;;;;5.87;3.53;;;11.30;99.90;;;;;;5136177;27;20729;-67
2023/02/17 08:26:49;;;;;;;7.32;3.60;;;11.20;99.90;;;;;;5135391;27;20019;-65
2023/02/17 08:29:15;;;;;;;7.43;3.57;;;11.20;99.90;;;;;;5117264;27;20459;-66
2023/02/17 08:31:41;;;;;;;7.30;3.92;;;11.20;99.90;;;;;;5130474;27;20538;-66
2023/02/17 08:34:10;;;;;;;7.15;3.45;;;11.10;99.90;;;;;;5115203;28;20503;-65
2023/02/17 08:36:38;;;;;;;7.32;4.35;;;11.00;99.90;;;;;;5096847;28;20076;-66
2023/02/17 08:39:09;;;;;;;8.07;3.72;;;10.90;99.90;;;;;;5102010;28;20026;-66
2023/02/17 08:41:37;;;;;;;8.43;3.90;;;10.90;99.90;;;;;;5115979;27;20027;-67
2023/02/17 08:44:09;;;;;;;8.25;3.92;;;10.90;99.90;;;;;;5093167;28;20058;-67
2023/02/17 08:46:35;;;;;;;9.35;3.55;;;10.80;99.90;;;;;;5105663;28;20024;-66
2023/02/17 08:49:01;;;;;;;6.65;3.83;;;10.80;99.90;;;;;;5104425;27;20019;-66
2023/02/17 08:51:26;;;;;;;7.27;3.67;;;10.90;99.90;;;;;;5135189;27;20019;-75
2023/02/17 08:53:59;;;;;;;7.90;3.90;;;11.00;99.90;;;;;;5084612;28;20032;-73
2023/02/17 08:56:26;;;;;;;7.20;3.55;;;11.00;99.90;;;;;;5078981;28;20113;-67
2023/02/17 08:58:52;;;;;;;6.13;3.60;;;11.00;99.90;;;;;;5092096;28;20165;-67
2023/02/17 09:01:18;;;;;;;6.47;3.95;;;11.10;99.90;;;;;;5106892;28;20513;-72
2023/02/17 09:03:44;;;;;;;;;;;11.20;99.90;;;;;;5096812;28;20027;-72
2023/02/17 09:06:10;;;;;;;5.32;3.40;;;11.30;99.90;;;;;;5093047;27;19918;-78
2023/02/17 09:08:38;;;;;;;7.05;3.63;;;11.30;99.90;;;;;;5121679;27;20519;-66
2023/02/17 09:11:04;;;;;;;9.18;4.05;;;11.30;99.90;;;;;;5128398;27;20032;-67
2023/02/17 09:13:29;;;;;;;6.28;3.47;;;11.30;99.90;;;;;;5097103;28;20072;-67
2023/02/17 09:15:55;;;;;;;8.93;3.77;;;11.30;99.90;;;;;;5115523;28;20028;-66
2023/02/17 09:18:21;;;;;;;9.80;3.27;;;11.30;99.90;;;;;;5095883;28;20030;-65
2023/02/17 09:20:47;;;;;;;6.82;3.60;;;11.30;99.90;;;;;;5108225;28;20032;-65
2023/02/17 09:23:13;;;;;;;6.55;3.20;;;11.30;99.90;;;;;;5093097;27;20471;-66
2023/02/17 09:25:38;;;;;;;7.38;3.20;;;11.30;99.90;;;;;;5114376;28;20356;-67
2023/02/17 09:28:04;;;;;;;8.73;3.20;;;11.30;99.90;;;;;;5096018;28;20054;-66
2023/02/17 09:30:30;;;;;;;6.25;3.28;;;11.30;99.90;;;;;;5118307;27;20023;-66
2023/02/17 09:32:56;;;;;;;11.47;4.00;;;11.30;99.90;;;;;;5115056;27;20084;-67
2023/02/17 09:35:22;;;;;;;5.60;3.25;;;11.40;99.90;;;;;;5113969;28;20099;-67
2023/02/17 09:37:48;;;;;;;6.73;2.83;;;11.50;99.90;;;;;;5113874;28;20067;-68
2023/02/17 09:40:21;;;;;;;7.47;2.78;;;11.40;99.90;;;;;;5113879;28;20046;-67
2023/02/17 09:42:47;;;;;;;6.22;2.70;;;11.40;99.90;;;;;;5113738;28;20038;-66
2023/02/17 09:45:23;;;;;;;4.93;2.78;;;11.40;99.90;;;;;;5095836;28;20099;-66
2023/02/17 09:47:58;;;;;;;5.30;2.70;;;11.30;99.90;;;;;;5113932;28;20028;-66
2023/02/17 09:50:31;;;;;;;6.22;2.67;;;11.30;99.90;;;;;;5114219;28;20019;-67
2023/02/17 09:53:24;;;;;;;6.07;2.53;;;11.40;99.90;;;;;;5095163;28;20027;-67
2023/02/17 09:55:53;;;;;;;4.63;2.47;;;11.50;99.90;;;;;;5096311;28;20030;-67
2023/02/17 09:58:41;;;;;;;8.05;2.47;;;11.50;99.90;;;;;;5115646;28;20077;-66
2023/02/17 10:01:11;;;;;;;5.25;2.53;;;11.50;99.90;;;;;;5115702;28;20053;-67
2023/02/17 10:03:36;;;;;;;6.53;2.58;;;11.60;99.90;;;;;;5115494;28;20031;-66
2023/02/17 10:06:19;;;;;;;6.70;2.40;;;11.70;99.90;;;;;;5095965;28;20024;-67
2023/02/17 10:08:55;;;;;;;3.95;2.35;;;11.70;99.90;;;;;;5113498;28;20115;-67
2023/02/17 10:11:30;;;;;;;5.35;2.50;;;11.80;99.90;;;;;;5113709;28;20031;-67
2023/02/17 10:14:00;;;;;;;5.47;2.80;;;11.90;99.90;;;;;;5113898;28;20073;-67
2023/02/17 10:16:33;;;;;;;4.90;2.70;;;11.90;99.90;;;;;;5095410;28;20114;-66
2023/02/17 10:19:09;;;;;;;7.20;2.30;;;12.00;99.90;;;;;;5113895;28;20024;-67
2023/02/17 10:21:39;;;;;;;8.05;2.72;;;12.00;99.90;;;;;;5096242;28;20028;-67
2023/02/17 10:24:05;;;;;;;3.83;2.25;;;11.90;99.90;;;;;;5115051;28;20038;-66
2023/02/17 10:26:47;;;;;;;5.28;2.80;;;12.00;99.90;;;;;;5117613;28;20035;-68
2023/02/17 10:29:19;;;;;;;5.63;2.70;;;12.00;99.90;;;;;;5099224;28;20069;-67
2023/02/17 10:31:58;;;;;;;3.65;2.38;;;12.10;99.90;;;;;;5117388;28;20012;-66
2023/02/17 10:34:48;;;;;;;5.72;2.75;;;12.20;99.90;;;;;;5117535;28;20076;-66
2023/02/17 10:37:22;;;;;;;6.15;2.40;;;12.30;99.90;;;;;;5099471;28;20022;-66
2023/02/17 10:39:53;;;;;;;5.50;2.63;;;12.40;99.90;;;;;;5117146;28;20024;-66
2023/02/17 10:42:29;;;;;;;7.93;2.67;;;12.60;99.90;;;;;;5117030;28;20118;-66
2023/02/17 10:45:04;;;;;;;5.72;2.80;;;12.60;99.90;;;;;;5116834;28;20110;-66
2023/02/17 10:47:31;;;;;;;5.57;3.15;;;12.70;99.90;;;;;;5116981;28;20039;-67
2023/02/17 10:50:00;;;;;;;6.72;2.80;;;12.80;99.90;;;;;;5117207;28;20027;-67
2023/02/17 10:52:39;;;;;;;6.93;3.08;;;12.80;99.90;;;;;;5116963;28;20103;-67
2023/02/17 10:55:13;;;;;;;5.55;2.90;;;12.80;99.90;;;;;;5098327;28;20027;-67
2023/02/17 10:57:40;;;;;;;4.25;2.38;;;12.90;99.90;;;;;;5117147;28;20031;-67
2023/02/17 11:00:13;;;;;;;4.40;2.40;;;13.00;99.90;;;;;;5117203;28;20444;-67
2023/02/17 11:02:43;;;;;;;5.25;2.60;;;13.10;99.90;;;;;;5098540;28;20027;-67
2023/02/17 11:05:25;;;;;;;5.35;2.42;;;13.20;99.90;;;;;;5116698;28;20032;-67
2023/02/17 11:08:03;;;;;;;7.25;3.13;;;13.20;99.90;;;;;;5098377;28;20023;-67
2023/02/17 11:10:34;;;;;;;4.68;3.10;;;13.20;99.90;;;;;;5099111;28;20027;-66
2023/02/17 11:13:02;;;;;;;6.03;3.10;;;13.10;99.90;;;;;;5117708;28;20034;-66
2023/02/17 11:15:29;;;;;;;5.15;2.90;;;13.00;99.90;;;;;;5116731;28;20024;-67
2023/02/17 11:17:58;;;;;;;6.13;2.80;;;12.90;99.90;;;;;;5120139;28;20027;-67
2023/02/17 11:20:23;;;;;;;7.50;2.90;;;12.80;99.90;;;;;;5119551;28;20128;-68
2023/02/17 11:23:19;;;;;;;7.57;3.23;;;12.70;99.90;;;;;;5118336;28;20118;-67
2023/02/17 11:25:58;;;;;;;4.57;2.90;;;12.80;99.90;;;;;;5116530;28;20024;-66
2023/02/17 11:28:25;;;;;;;6.70;2.92;;;12.80;99.90;;;;;;5116235;28;20098;-67
2023/02/17 11:30:57;;;;;;;4.75;2.95;;;12.80;99.90;;;;;;5116026;28;20031;-67
2023/02/17 11:33:38;;;;;;;5.88;2.95;;;12.80;99.90;;;;;;5116298;28;20019;-66
2023/02/17 11:36:06;;;;;;;6.60;3.25;;;12.70;99.90;;;;;;5116162;28;20061;-67
2023/02/17 11:38:41;;;;;;;5.97;3.35;;;12.70;99.90;;;;;;5097245;28;20028;-67
2023/02/17 11:41:07;;;;;;;5.50;2.97;;;12.80;99.90;;;;;;5116132;28;20073;-66
2023/02/17 11:43:34;;;;;;;;;;;12.80;99.90;;;;;;5116329;28;20388;-67
2023/02/17 11:46:17;;;;;;;7.68;3.40;;;12.70;99.90;;;;;;5115990;28;20378;-66
2023/02/17 11:48:48;;;;;;;7.00;3.30;;;12.70;99.90;;;;;;5116287;28;20024;-67
2023/02/17 11:51:35;;;;;;;7.85;3.20;;;12.60;99.90;;;;;;5115600;28;20023;-67
2023/02/17 11:54:29;;;;;;;4.40;2.70;;;12.60;99.90;;;;;;5115490;28;20360;-67
2023/02/17 11:57:21;;;;;;;4.45;3.00;;;12.70;99.90;;;;;;5097315;28;20035;-66
2023/02/17 12:00:26;;;;;;;6.40;3.30;;;12.70;99.90;;;;;;5115555;28;20502;-67
2023/02/17 12:03:16;;;;;;;6.90;3.45;;;12.80;99.90;;;;;;5115670;28;20080;-68
2023/02/17 12:06:07;;;;;;;5.82;3.50;;;12.70;99.90;;;;;;5097087;28;20472;-68
2023/02/17 12:08:40;;;;;;;6.20;3.35;;;12.70;99.90;;;;;;5097027;28;20119;-68
2023/02/17 12:11:18;;;;;;;4.28;3.30;;;12.80;99.90;;;;;;5115454;28;20034;-68
2023/02/17 12:14:04;;;;;;;7.97;3.40;;;12.80;99.90;;;;;;5091115;28;20123;-68
2023/02/17 12:16:47;;;;;;;11.77;7.13;;;12.80;99.90;;;;;;5095486;28;20023;-68
2023/02/17 12:19:40;;;;;;;4.80;3.30;;;13.00;99.90;;;;;;5113497;28;20027;-68
2023/02/17 12:22:19;;;;;;;12.05;3.63;;;13.10;99.90;;;;;;5094379;28;20038;-68
2023/02/17 12:24:59;;;;;;;9.40;3.63;;;13.20;99.90;;;;;;5095175;28;20024;-68
2023/02/17 12:27:55;;;;;;;7.47;3.00;;;13.10;99.90;;;;;;5115013;28;20034;-68
2023/02/17 12:31:01;;;;;;;7.40;3.05;;;13.30;99.90;;;;;;5100554;28;20020;-68
2023/02/17 12:33:46;;;;;;;8.60;3.50;;;13.40;99.90;;;;;;5099064;28;20031;-70
2023/02/17 12:36:15;;;;;;;6.93;4.57;;;13.60;99.90;;;;;;5089915;28;20027;-68
2023/02/17 12:38:46;;;;;;;7.60;3.63;;;13.60;99.90;;;;;;5112718;28;20095;-69
2023/02/17 12:41:39;;;;;;;6.72;3.53;;;13.50;99.90;;;;;;5107434;28;20097;-67
2023/02/17 12:44:21;;;;;;;8.25;3.47;;;13.50;99.90;;;;;;5094643;28;20028;-70
2023/02/17 12:46:51;;;;;;;5.20;2.92;;;13.50;99.90;;;;;;5093604;28;20027;-71
2023/02/17 12:49:36;;;;;;;5.45;3.05;;;13.40;99.90;;;;;;5076353;28;20392;-68
2023/02/17 12:52:22;;;;;;;7.18;3.58;;;13.40;99.90;;;;;;5076455;28;20456;-69
2023/02/17 12:55:03;;;;;;;6.00;3.30;;;13.60;99.90;;;;;;5093449;28;20093;-67
2023/02/17 12:58:10;;;;;;;4.65;3.42;;;13.60;99.90;;;;;;5075686;28;20032;-68
2023/02/17 13:00:47;;;;;;;6.65;3.53;;;13.60;99.90;;;;;;5012082;28;20029;-68
2023/02/17 13:03:12;;;;;;;5.07;3.40;;;13.70;99.90;;;;;;5012014;28;20057;-68
2023/02/17 13:05:57;;;;;;;6.07;3.20;;;13.70;99.90;;;;;;5011745;28;20092;-68
2023/02/17 13:08:43;;;;;;;5.18;3.00;;;13.80;99.90;;;;;;5011907;28;20265;-67